Time;durP1;ratioP1;P1;durP2;ratioP2;P2;SDS_P1;SDS_P2;PMS_P1;PMS_P2;Temp;Humidity;BMP_temperature;BMP_pressure;BME280_temperature;BME280_humidity;BME280_pressure;Samples;Min_cycle;Max_cycle;Signal;HPM_P1;HPM_P2
2021/03/14 00:01:12;;;;;;;49.90;27.73;;;;;;;9.03;73.08;99473.06;6160494;23;20239;-69
2021/03/14 00:03:37;;;;;;;45.90;27.65;;;;;;;9.02;73.08;99468.66;6160561;23;20009;-70
2021/03/14 00:06:04;;;;;;;44.20;28.00;;;;;;;9.00;73.48;99463.47;6134629;23;20381;-69
2021/03/14 00:08:30;;;;;;;45.85;29.80;;;;;;;9.03;73.69;99459.03;6160734;23;20361;-70
2021/03/14 00:10:58;;;;;;;48.35;28.83;;;;;;;9.03;73.70;99467.44;6160617;23;20012;-69
2021/03/14 00:13:28;;;;;;;46.72;28.83;;;;;;;9.08;72.80;99461.44;6160148;23;20310;-69
2021/03/14 00:15:54;;;;;;;46.03;28.27;;;;;;;9.05;73.30;99445.44;6160300;23;20092;-69
2021/03/14 00:18:23;;;;;;;46.20;29.23;;;;;;;9.08;73.01;99453.00;6134537;23;20040;-69
2021/03/14 00:20:49;;;;;;;48.55;28.25;;;;;;;9.18;72.72;99454.91;6160427;23;20048;-69
2021/03/14 00:23:15;;;;;;;47.50;28.13;;;;;;;9.13;72.91;99444.94;6160494;23;20077;-69
2021/03/14 00:25:40;;;;;;;43.88;28.50;;;;;;;9.06;73.80;99438.63;6160207;23;20037;-69
2021/03/14 00:28:05;;;;;;;44.53;27.63;;;;;;;9.06;73.76;99441.44;6160114;23;20012;-68
2021/03/14 00:30:31;;;;;;;45.42;28.33;;;;;;;9.03;73.90;99436.63;6160319;23;20005;-69
2021/03/14 00:32:57;;;;;;;44.70;28.00;;;;;;;9.02;73.91;99433.03;6160738;23;20004;-70
2021/03/14 00:35:23;;;;;;;46.65;27.60;;;;;;;9.06;73.66;99427.41;6160311;23;20001;-69
2021/03/14 00:37:49;;;;;;;43.70;27.67;;;;;;;9.06;73.57;99430.22;6160285;23;20001;-67
2021/03/14 00:40:15;;;;;;;43.13;27.65;;;;;;;9.11;73.18;99416.53;6134477;23;20017;-68
2021/03/14 00:42:41;;;;;;;51.13;28.98;;;;;;;9.10;73.70;99414.94;6160155;23;20428;-69
2021/03/14 00:45:08;;;;;;;48.47;28.80;;;;;;;9.09;73.33;99409.75;6159769;23;20344;-66
2021/03/14 00:47:36;;;;;;;41.65;26.33;;;;;;;9.07;73.57;99409.38;6160249;23;20001;-68
2021/03/14 00:50:07;;;;;;;41.55;26.35;;;;;;;9.14;72.86;99410.09;6160355;23;20028;-68
2021/03/14 00:52:33;;;;;;;41.22;25.60;;;;;;;9.18;72.66;99396.81;6159967;23;20052;-67
2021/03/14 00:54:58;;;;;;;40.53;26.38;;;;;;;9.19;72.69;99394.81;6160199;23;20002;-68
2021/03/14 00:57:23;;;;;;;40.45;25.23;;;;;;;9.20;72.64;99393.59;6134041;23;20029;-67
2021/03/14 00:59:49;;;;;;;37.08;24.20;;;;;;;9.16;72.62;99396.44;6159922;23;20009;-68
2021/03/14 01:02:15;;;;;;;41.38;25.25;;;;;;;9.16;72.68;99401.25;6160367;23;20005;-67
2021/03/14 01:04:40;;;;;;;40.53;24.92;;;;;;;9.17;72.82;99392.44;6159957;23;20012;-68
2021/03/14 01:07:05;;;;;;;38.45;24.30;;;;;;;9.17;72.90;99388.84;6134185;23;20060;-67
2021/03/14 01:09:31;;;;;;;41.40;24.63;;;;;;;9.16;72.08;99390.06;6160174;23;20052;-68
2021/03/14 01:11:56;;;;;;;35.42;23.73;;;;;;;9.18;72.26;99385.59;6160150;23;20080;-68
2021/03/14 01:14:22;;;;;;;35.33;22.55;;;;;;;9.22;71.96;99374.34;6159863;23;19997;-68
2021/03/14 01:16:47;;;;;;;33.95;22.95;;;;;;;9.24;71.35;99377.53;6159856;23;20233;-67
2021/03/14 01:19:12;;;;;;;40.17;24.63;;;;;;;9.27;71.59;99373.88;6160207;23;20008;-68
2021/03/14 01:21:38;;;;;;;39.58;23.88;;;;;;;9.26;71.65;99377.91;6159999;23;20418;-68
2021/03/14 01:24:03;;;;;;;36.33;23.52;;;;;;;9.26;71.50;99377.91;6159781;23;20374;-68
2021/03/14 01:26:29;;;;;;;35.45;22.52;;;;;;;9.28;71.86;99369.88;6159752;23;20017;-67
2021/03/14 01:28:54;;;;;;;34.00;22.35;;;;;;;9.28;71.34;99370.66;6159823;23;20363;-68
2021/03/14 01:31:19;;;;;;;38.13;22.65;;;;;;;9.28;71.27;99372.66;6159755;23;20056;-68
2021/03/14 01:33:45;;;;;;;36.95;22.30;;;;;;;9.29;71.15;99363.03;6159836;23;20017;-68
2021/03/14 01:36:10;;;;;;;31.42;21.27;;;;;;;9.32;71.11;99364.25;6159924;23;20374;-68
2021/03/14 01:38:35;;;;;;;34.70;22.33;;;;;;;9.31;70.63;99360.63;6159187;23;20037;-69
2021/03/14 01:41:02;;;;;;;35.42;22.35;;;;;;;9.27;71.15;99359.88;6159333;23;20001;-68
2021/03/14 01:43:30;;;;;;;33.67;21.80;;;;;;;9.29;71.09;99363.03;6159938;23;20059;-67
2021/03/14 01:45:56;;;;;;;35.58;22.58;;;;;;;9.28;71.31;99358.66;6159418;23;20033;-68
2021/03/14 01:48:26;;;;;;;36.35;23.42;;;;;;;9.26;71.13;99361.09;6159714;23;20247;-68
2021/03/14 01:50:52;;;;;;;41.88;22.67;;;;;;;9.27;71.04;99365.47;6159682;23;20085;-69
2021/03/14 01:53:19;;;;;;;35.92;23.75;;;;;;;9.25;71.40;99354.69;6159828;23;20029;-68
2021/03/14 01:55:46;;;;;;;31.33;21.80;;;;;;;9.26;71.17;99367.47;6159219;23;19993;-69
2021/03/14 01:58:12;;;;;;;33.38;22.17;;;;;;;9.25;71.43;99359.50;6159723;23;20076;-67
2021/03/14 02:00:39;;;;;;;37.00;23.05;;;;;;;9.25;71.29;99360.28;6159517;23;20055;-67
2021/03/14 02:03:04;;;;;;;32.80;22.33;;;;;;;9.24;71.67;99355.91;6159406;23;20076;-69
2021/03/14 02:05:30;;;;;;;36.70;21.88;;;;;;;9.28;71.11;99359.44;6159523;23;20366;-66
2021/03/14 02:07:55;;;;;;;37.88;21.98;;;;;;;9.27;71.22;99357.06;6133668;23;20016;-67
2021/03/14 02:10:23;;;;;;;35.08;22.33;;;;;;;9.26;71.38;99355.47;6159136;23;20001;-68
2021/03/14 02:13:00;;;;;;;37.53;22.25;;;;;;;9.23;71.56;99356.31;6159518;23;20002;-68
2021/03/14 02:15:27;;;;;;;35.33;21.27;;;;;;;9.21;70.91;99347.53;6133424;23;20013;-66
2021/03/14 02:17:55;;;;;;;33.78;20.90;;;;;;;9.20;71.04;99354.34;6159434;23;20112;-70
2021/03/14 02:20:25;;;;;;;32.45;20.70;;;;;;;9.20;71.33;99346.72;6159482;23;20040;-67
2021/03/14 02:23:09;;;;;;;37.38;20.58;;;;;;;9.20;71.44;99346.72;6159296;23;20001;-67
2021/03/14 02:25:43;;;;;;;35.83;20.85;;;;;;;9.19;71.33;99339.53;6159159;23;20005;-70
2021/03/14 02:28:10;;;;;;;30.50;19.65;;;;;;;9.19;70.68;99350.75;6159061;23;20056;-68
2021/03/14 02:30:36;;;;;;;32.33;19.63;;;;;;;9.20;71.18;99349.53;6159040;23;20080;-67
2021/03/14 02:33:02;;;;;;;30.85;20.10;;;;;;;9.20;70.95;99351.53;6159330;23;20037;-68
2021/03/14 02:35:29;;;;;;;31.50;19.25;;;;;;;9.21;71.06;99353.13;6159119;23;20036;-67
2021/03/14 02:37:54;;;;;;;32.85;19.38;;;;;;;9.21;70.62;99344.72;6159489;23;20349;-69
2021/03/14 02:40:21;;;;;;;30.02;18.73;;;;;;;9.20;70.80;99352.34;6159024;23;20014;-66
2021/03/14 02:42:49;;;;;;;31.70;19.65;;;;;;;9.24;70.53;99355.09;6159250;23;20358;-68
2021/03/14 02:45:17;;;;;;;30.88;19.50;;;;;;;9.21;70.25;99353.94;6159099;23;20016;-68
2021/03/14 02:47:44;;;;;;;28.90;18.52;;;;;;;9.20;70.43;99354.34;6159146;23;20005;-66
2021/03/14 02:50:17;;;;;;;28.95;17.48;;;;;;;9.23;70.41;99356.31;6133471;23;20306;-66
2021/03/14 02:52:44;;;;;;;24.77;16.90;;;;;;;9.21;70.28;99353.13;6158888;23;20028;-66
2021/03/14 02:55:11;;;;;;;25.90;17.70;;;;;;;9.20;70.29;99357.16;6159232;23;20001;-67
2021/03/14 02:57:37;;;;;;;26.10;17.20;;;;;;;9.19;70.18;99356.38;6158934;23;20009;-67
2021/03/14 03:00:08;;;;;;;26.50;17.77;;;;;;;9.22;70.06;99361.13;6159099;23;19997;-67
2021/03/14 03:02:34;;;;;;;28.92;17.05;;;;;;;9.25;69.64;99359.50;6159405;23;20005;-67
2021/03/14 03:05:00;;;;;;;27.23;17.60;;;;;;;9.28;69.77;99359.44;6158886;23;20373;-67
2021/03/14 03:07:26;;;;;;;24.10;15.73;;;;;;;9.33;68.88;99352.59;6158868;23;19997;-67
2021/03/14 03:09:52;;;;;;;27.38;17.50;;;;;;;9.38;68.92;99348.53;6159158;23;20051;-66
2021/03/14 03:12:22;;;;;;;23.17;15.52;;;;;;;9.46;68.48;99352.84;6159044;23;20006;-66
2021/03/14 03:14:49;;;;;;;22.75;15.30;;;;;;;9.47;68.29;99343.19;6159277;23;20060;-66
2021/03/14 03:17:16;;;;;;;22.48;13.38;;;;;;;9.46;67.65;99345.22;6159120;23;20083;-67
2021/03/14 03:19:42;;;;;;;20.05;13.35;;;;;;;9.46;67.65;99345.22;6158548;23;20052;-69
2021/03/14 03:22:08;;;;;;;20.48;13.65;;;;;;;9.49;67.98;99341.56;6132169;23;20024;-68
2021/03/14 03:24:33;;;;;;;22.60;13.60;;;;;;;9.53;67.52;99344.31;6158947;23;20009;-69
2021/03/14 03:26:59;;;;;;;19.77;11.57;;;;;;;9.54;67.10;99343.09;6159123;23;20005;-66
2021/03/14 03:29:25;;;;;;;19.38;11.82;;;;;;;9.53;67.29;99342.31;6158677;23;20013;-68
2021/03/14 03:31:50;;;;;;;17.42;11.93;;;;;;;9.56;66.60;99332.25;6159084;23;20001;-69
2021/03/14 03:34:16;;;;;;;16.92;10.25;;;;;;;9.54;66.83;99331.88;6159058;23;20068;-68
2021/03/14 03:36:43;;;;;;;17.08;10.23;;;;;;;9.58;65.87;99327.81;6158562;23;20014;-69
2021/03/14 03:39:11;;;;;;;16.67;8.88;;;;;;;9.57;66.03;99333.84;6132858;23;20024;-68
2021/03/14 03:41:46;;;;;;;17.13;9.77;;;;;;;9.59;65.85;99337.84;6133224;23;20333;-68
2021/03/14 03:44:13;;;;;;;12.38;8.85;;;;;;;9.59;65.85;99329.44;6158748;23;20504;-67
2021/03/14 03:46:41;;;;;;;13.70;8.45;;;;;;;9.64;65.91;99332.97;6158973;23;20002;-66
2021/03/14 03:49:08;;;;;;;14.55;8.82;;;;;;;9.66;64.74;99341.75;6158874;23;20047;-68
2021/03/14 03:51:34;;;;;;;15.55;8.70;;;;;;;9.70;65.22;99336.88;6158674;23;20059;-68
2021/03/14 03:54:04;;;;;;;11.95;7.45;;;;;;;9.71;64.89;99341.28;6158991;23;20081;-67
2021/03/14 03:56:30;;;;;;;12.27;6.75;;;;;;;9.72;65.13;99340.06;6158669;23;20350;-69
2021/03/14 03:58:59;;;;;;;10.40;6.72;;;;;;;9.71;65.04;99339.28;6158883;23;20013;-66
2021/03/14 04:01:25;;;;;;;10.15;6.72;;;;;;;9.71;64.66;99335.66;6159681;23;20055;-67
2021/03/14 04:03:52;;;;;;;16.05;7.22;;;;;;;9.72;65.50;99331.66;6160536;23;20025;-68
2021/03/14 04:06:18;;;;;;;10.32;6.88;;;;;;;9.72;65.02;99340.84;6160486;23;20015;-69
2021/03/14 04:08:46;;;;;;;14.50;7.03;;;;;;;9.72;64.85;99338.06;6135031;23;20035;-68
2021/03/14 04:11:15;;;;;;;10.27;6.72;;;;;;;9.72;64.20;99343.66;6160663;23;20068;-68
2021/03/14 04:13:42;;;;;;;14.48;7.88;;;;;;;9.73;64.65;99350.88;6160563;23;20017;-68
2021/03/14 04:16:10;;;;;;;15.07;7.55;;;;;;;9.74;64.60;99354.47;6160670;23;20002;-67
2021/03/14 04:18:37;;;;;;;15.55;8.20;;;;;;;9.76;65.20;99357.63;6160618;23;20028;-68
2021/03/14 04:21:05;;;;;;;15.50;7.63;;;;;;;9.78;65.47;99358.81;6160362;23;20017;-68
2021/03/14 04:23:32;;;;;;;14.35;8.68;;;;;;;9.82;65.83;99355.94;6160433;23;20274;-67
2021/03/14 04:25:59;;;;;;;14.82;8.30;;;;;;;9.81;66.14;99357.16;6160451;23;20008;-68
2021/03/14 04:28:29;;;;;;;18.35;8.02;;;;;;;9.82;66.75;99358.75;6160596;23;20050;-68
2021/03/14 04:30:56;;;;;;;14.57;8.90;;;;;;;9.81;67.07;99352.34;6160401;23;20001;-66
2021/03/14 04:33:23;;;;;;;13.48;8.43;;;;;;;9.78;67.41;99358.00;6160297;23;20064;-68
2021/03/14 04:35:50;;;;;;;18.17;9.05;;;;;;;9.76;67.79;99349.22;6160194;23;20006;-68
2021/03/14 04:38:17;;;;;;;14.85;8.65;;;;;;;9.72;67.98;99349.28;6160279;23;20009;-68
2021/03/14 04:40:43;;;;;;;15.63;9.13;;;;;;;9.73;67.52;99355.69;6160307;23;20009;-68
2021/03/14 04:43:09;;;;;;;15.77;9.40;;;;;;;9.73;67.43;99350.06;6160356;23;20413;-68
2021/03/14 04:45:36;;;;;;;15.13;9.10;;;;;;;9.71;67.72;99349.69;6160200;23;20001;-69
2021/03/14 04:48:01;;;;;;;17.20;8.90;;;;;;;9.69;68.34;99352.94;6160415;23;20005;-68
2021/03/14 04:50:28;;;;;;;14.27;9.23;;;;;;;9.65;68.82;99345.78;6160205;23;20309;-68
2021/03/14 04:52:57;;;;;;;14.48;9.07;;;;;;;9.60;69.06;99339.44;6160171;23;20370;-68
2021/03/14 04:55:23;;;;;;;14.85;9.32;;;;;;;9.58;68.23;99335.44;6160302;23;20001;-69
2021/03/14 04:57:50;;;;;;;17.58;10.05;;;;;;;9.56;68.94;99333.03;6159890;23;20071;-68
2021/03/14 05:00:18;;;;;;;16.92;9.10;;;;;;;9.54;68.69;99335.47;6160334;23;20290;-68
2021/03/14 05:02:47;;;;;;;18.55;9.50;;;;;;;9.53;69.19;99330.28;6159920;23;20010;-68
2021/03/14 05:05:13;;;;;;;16.95;8.43;;;;;;;9.52;68.81;99329.50;6159980;23;20007;-68
2021/03/14 05:07:42;;;;;;;12.95;8.10;;;;;;;9.51;69.69;99329.94;6160069;23;20068;-68
2021/03/14 05:10:12;;;;;;;15.50;8.73;;;;;;;9.49;69.56;99338.75;6160182;23;20001;-68
2021/03/14 05:12:45;;;;;;;19.88;9.52;;;;;;;9.49;69.50;99347.19;6159456;23;20009;-68
2021/03/14 05:15:12;;;;;;;14.73;8.38;;;;;;;9.50;69.57;99333.94;6160178;23;20068;-68
2021/03/14 05:17:39;;;;;;;14.82;9.38;;;;;;;9.50;70.00;99340.34;6159888;23;20258;-67
2021/03/14 05:20:12;;;;;;;23.10;9.73;;;;;;;9.53;70.45;99341.50;6134122;23;20009;-66
2021/03/14 05:22:39;;;;;;;15.48;9.20;;;;;;;9.53;70.07;99345.13;6160083;23;20295;-67
2021/03/14 05:25:06;;;;;;;14.27;9.02;;;;;;;9.54;69.71;99345.91;6159715;23;20262;-67
2021/03/14 05:27:32;;;;;;;11.15;8.30;;;;;;;9.54;70.40;99337.50;6159773;23;20005;-67
2021/03/14 05:29:58;;;;;;;13.52;9.07;;;;;;;9.49;70.34;99347.19;6159883;23;20005;-66
2021/03/14 05:32:24;;;;;;;13.85;9.00;;;;;;;9.47;70.68;99341.19;6159347;23;20005;-64
2021/03/14 05:34:50;;;;;;;16.27;10.10;;;;;;;9.47;70.81;99349.59;6160323;23;20028;-65
2021/03/14 05:37:15;;;;;;;20.73;12.95;;;;;;;9.45;70.57;99346.44;6159872;23;20265;-64
2021/03/14 05:39:40;;;;;;;21.67;12.38;;;;;;;9.44;71.18;99344.84;6159512;23;20029;-66
2021/03/14 05:42:06;;;;;;;25.77;14.32;;;;;;;9.42;71.07;99341.66;6133964;23;20044;-66
2021/03/14 05:44:32;;;;;;;34.45;18.42;;;;;;;9.41;72.03;99348.50;6159469;23;20002;-64
2021/03/14 05:46:57;;;;;;;31.63;18.60;;;;;;;9.42;72.51;99352.88;6159602;23;20318;-64
2021/03/14 05:49:24;;;;;;;26.48;15.73;;;;;;;9.40;73.58;99352.50;6159467;23;20008;-63
2021/03/14 05:51:52;;;;;;;41.63;21.40;;;;;;;9.41;73.58;99356.91;6160022;23;20005;-63
2021/03/14 05:54:18;;;;;;;53.85;30.58;;;;;;;9.41;73.07;99358.91;6159762;23;19997;-67
2021/03/14 05:56:48;;;;;;;52.20;28.73;;;;;;;9.40;72.43;99369.34;6159594;23;20013;-67
2021/03/14 05:59:16;;;;;;;41.47;25.08;;;;;;;9.40;72.88;99372.13;6159550;23;20002;-66
2021/03/14 06:01:50;;;;;;;32.97;19.75;;;;;;;9.41;73.03;99365.31;6159273;23;20109;-66
2021/03/14 06:04:17;;;;;;;26.23;16.67;;;;;;;9.41;73.18;99364.53;6159522;23;20368;-66
2021/03/14 06:06:43;;;;;;;24.17;15.13;;;;;;;9.41;73.44;99373.72;6159507;23;20371;-67
2021/03/14 06:09:10;;;;;;;29.15;16.40;;;;;;;9.42;73.56;99364.09;6159446;23;20002;-65
2021/03/14 06:11:36;;;;;;;39.92;22.95;;;;;;;9.44;74.08;99384.09;6159459;23;20005;-66
2021/03/14 06:14:01;;;;;;;33.47;19.00;;;;;;;9.45;73.64;99385.69;6159490;23;20005;-66
2021/03/14 06:16:27;;;;;;;26.40;16.05;;;;;;;9.49;73.92;99392.06;6159247;23;20029;-67
2021/03/14 06:18:53;;;;;;;23.17;13.45;;;;;;;9.50;73.46;99390.84;6159289;23;20012;-67
2021/03/14 06:21:24;;;;;;;23.98;13.43;;;;;;;9.52;73.71;99382.78;6159711;23;20028;-66
2021/03/14 06:24:10;;;;;;;23.00;13.40;;;;;;;9.54;73.71;99388.78;6159296;23;20001;-67
2021/03/14 06:26:36;;;;;;;19.95;12.43;;;;;;;9.55;73.65;99379.16;6159374;23;20006;-65
2021/03/14 06:29:17;;;;;;;21.58;14.63;;;;;;;9.55;73.83;99378.34;6159196;23;20384;-66
2021/03/14 06:31:51;;;;;;;23.40;16.02;;;;;;;9.56;73.62;99375.13;6159271;23;20001;-65
2021/03/14 06:34:30;;;;;;;29.17;17.25;;;;;;;9.58;74.17;99377.50;6159244;23;20025;-67
2021/03/14 06:36:58;;;;;;;25.20;17.08;;;;;;;9.62;73.96;99383.91;6133504;23;20009;-66
2021/03/14 06:39:27;;;;;;;30.48;20.60;;;;;;;9.67;73.42;99385.44;6159142;23;20025;-66
2021/03/14 06:41:53;;;;;;;39.33;22.95;;;;;;;9.71;73.73;99370.13;6158040;23;20247;-66
2021/03/14 06:44:25;;;;;;;38.15;22.75;;;;;;;9.76;73.81;99377.28;6158569;23;20096;-66
2021/03/14 06:46:51;;;;;;;36.92;21.33;;;;;;;9.78;73.18;99367.22;6159397;23;20001;-67
2021/03/14 06:49:18;;;;;;;29.52;17.45;;;;;;;9.82;73.61;99364.34;6159673;23;20253;-66
2021/03/14 06:51:46;;;;;;;17.50;13.02;;;;;;;9.85;73.34;99363.50;6159368;23;20009;-64
2021/03/14 06:54:20;;;;;;;20.08;12.73;;;;;;;9.87;73.21;99358.31;6159280;23;19997;-65
2021/03/14 06:57:06;;;;;;;18.48;11.88;;;;;;;9.91;73.51;99361.84;6159072;23;20006;-63
2021/03/14 06:59:34;;;;;;;16.17;10.18;;;;;;;9.97;73.78;99360.16;6158942;23;20002;-63
2021/03/14 07:02:07;;;;;;;14.00;9.60;;;;;;;10.06;74.00;99360.41;6133545;23;20001;-65
2021/03/14 07:04:33;;;;;;;14.82;9.40;;;;;;;10.13;73.55;99357.47;6158976;23;20002;-66
2021/03/14 07:06:59;;;;;;;17.88;10.27;;;;;;;10.18;72.54;99362.63;6159172;23;20012;-66
2021/03/14 07:09:24;;;;;;;15.10;9.02;;;;;;;10.27;72.39;99358.53;6158922;23;20009;-64
2021/03/14 07:11:50;;;;;;;25.27;14.15;;;;;;;10.36;72.04;99355.94;6158967;23;20009;-65
2021/03/14 07:14:16;;;;;;;31.45;18.10;;;;;;;10.43;71.64;99362.28;6158945;23;20002;-66
2021/03/14 07:16:43;;;;;;;29.05;18.00;;;;;;;10.49;71.71;99362.56;6133049;23;20001;-65
2021/03/14 07:19:09;;;;;;;33.40;17.52;;;;;;;10.55;72.01;99362.88;6159085;23;20005;-64
2021/03/14 07:21:35;;;;;;;22.90;12.82;;;;;;;10.59;71.88;99364.41;6159085;23;20080;-64
2021/03/14 07:24:01;;;;;;;16.42;11.00;;;;;;;10.64;71.96;99369.50;6133056;23;20033;-66
2021/03/14 07:26:46;;;;;;;19.15;11.82;;;;;;;10.72;71.89;99362.56;6159269;23;20021;-63
2021/03/14 07:29:12;;;;;;;22.05;12.52;;;;;;;10.86;71.65;99372.75;6158645;23;20072;-67
2021/03/14 07:31:38;;;;;;;24.95;11.10;;;;;;;10.98;71.28;99365.72;6158986;23;20084;-64
2021/03/14 07:34:05;;;;;;;16.17;9.43;;;;;;;11.04;71.82;99373.22;6133206;23;20326;-66
2021/03/14 07:36:31;;;;;;;18.48;10.05;;;;;;;11.08;71.30;99373.16;6158559;23;20010;-67
2021/03/14 07:38:57;;;;;;;16.17;10.05;;;;;;;11.11;71.16;99380.72;6160891;23;20028;-64
2021/03/14 07:41:28;;;;;;;16.23;10.00;;;;;;;11.15;71.54;99387.88;6160998;23;20022;-65
2021/03/14 07:43:53;;;;;;;13.17;9.13;;;;;;;11.18;71.64;99374.97;6160157;23;19997;-65
2021/03/14 07:46:23;;;;;;;13.50;8.07;;;;;;;11.22;71.18;99381.31;6160949;23;20001;-64
2021/03/14 07:48:51;;;;;;;16.65;7.80;;;;;;;11.27;72.23;99378.00;6161032;23;20005;-63
2021/03/14 07:51:22;;;;;;;17.30;8.27;;;;;;;11.31;71.87;99384.34;6160550;23;20052;-65
2021/03/14 07:53:50;;;;;;;11.40;6.53;;;;;;;11.36;71.54;99380.25;6160649;23;20482;-64
2021/03/14 07:56:16;;;;;;;11.38;6.53;;;;;;;11.40;71.52;99378.94;6161029;23;20071;-67
2021/03/14 07:58:41;;;;;;;48.08;34.45;;;;;;;11.51;72.27;99377.94;6160136;23;20355;-64
2021/03/14 08:01:27;;;;;;;28.10;19.10;;;;;;;11.56;71.88;99383.06;6160598;23;20002;-63
2021/03/14 08:03:52;;;;;;;11.02;6.95;;;;;;;11.58;70.98;99386.22;6160425;23;20001;-64
2021/03/14 08:06:43;;;;;;;11.20;6.40;;;;;;;11.60;70.44;99393.00;6134883;23;20016;-64
2021/03/14 08:09:09;;;;;;;8.93;5.47;;;;;;;11.61;69.67;99393.81;6160413;23;20073;-64
2021/03/14 08:11:35;;;;;;;12.32;6.70;;;;;;;11.63;68.79;99402.59;6159863;23;20382;-67
2021/03/14 08:14:00;;;;;;;12.73;7.53;;;;;;;11.62;68.34;99398.19;6160589;23;20012;-65
2021/03/14 08:16:25;;;;;;;14.30;6.43;;;;;;;11.62;68.79;99401.03;6160592;23;20006;-63
2021/03/14 08:18:52;;;;;;;12.88;6.38;;;;;;;11.63;68.88;99399.78;6160399;23;20037;-65
2021/03/14 08:21:39;;;;;;;13.15;6.82;;;;;;;11.63;68.53;99403.41;6160854;23;20001;-64
2021/03/14 08:24:05;;;;;;;14.18;7.57;;;;;;;11.64;68.03;99395.75;6159336;23;20001;-66
2021/03/14 08:26:35;;;;;;;10.98;6.75;;;;;;;11.65;68.19;99397.34;6159930;23;20002;-70
2021/03/14 08:29:09;;;;;;;12.52;7.53;;;;;;;11.68;67.21;99394.44;6134481;23;20056;-69
2021/03/14 08:31:43;;;;;;;14.82;6.38;;;;;;;11.69;66.30;99393.22;6160607;23;20016;-65
2021/03/14 08:34:12;;;;;;;11.38;6.30;;;;;;;11.70;66.84;99391.97;6160342;23;20009;-66
2021/03/14 08:36:40;;;;;;;9.90;6.10;;;;;;;11.73;67.63;99398.75;6160291;23;20009;-68
2021/03/14 08:39:08;;;;;;;16.70;7.72;;;;;;;11.75;68.02;99407.56;6160265;23;20290;-70
2021/03/14 08:41:41;;;;;;;15.05;8.40;;;;;;;11.73;67.41;99416.44;6160119;23;20012;-66
2021/03/14 08:44:28;;;;;;;15.70;7.70;;;;;;;11.76;68.48;99414.78;6160461;23;20014;-67
2021/03/14 08:46:53;;;;;;;11.82;6.18;;;;;;;11.77;67.71;99428.41;6159631;23;20016;-67
2021/03/14 08:49:21;;;;;;;26.27;14.20;;;;;;;11.80;68.06;99437.28;6160118;23;20037;-66
2021/03/14 08:51:48;;;;;;;29.98;12.63;;;;;;;11.78;68.27;99440.53;6160426;23;20083;-67
2021/03/14 08:54:14;;;;;;;19.00;9.65;;;;;;;11.77;68.06;99427.63;6160182;23;20026;-65
2021/03/14 08:56:40;;;;;;;9.10;5.28;;;;;;;11.79;69.49;99413.19;6159713;23;20059;-67
2021/03/14 08:59:10;;;;;;;8.00;4.60;;;;;;;11.80;69.50;99414.75;6160398;23;20076;-66
2021/03/14 09:01:37;;;;;;;6.03;3.92;;;;;;;11.80;69.86;99409.13;6160269;23;20002;-67
2021/03/14 09:04:14;;;;;;;5.50;3.22;;;;;;;11.79;69.41;99419.59;6160017;23;20239;-70
2021/03/14 09:06:39;;;;;;;5.07;3.25;;;;;;;11.75;69.48;99421.63;6160032;23;20006;-70
2021/03/14 09:09:10;;;;;;;6.70;2.95;;;;;;;11.71;68.75;99424.53;6159582;23;20012;-70
2021/03/14 09:11:39;;;;;;;5.97;3.35;;;;;;;11.67;69.14;99423.81;6159660;23;20059;-70
2021/03/14 09:14:25;;;;;;;10.40;3.03;;;;;;;11.64;68.96;99441.56;6159861;23;20038;-68
2021/03/14 09:17:06;;;;;;;3.40;2.90;;;;;;;11.60;68.61;99434.44;6159159;23;20261;-66
2021/03/14 09:19:45;;;;;;;12.05;3.83;;;;;;;11.54;67.79;99430.53;6159708;23;20005;-67
2021/03/14 09:22:17;;;;;;;6.68;4.35;;;;;;;11.50;67.91;99430.59;6159823;23;20001;-66
2021/03/14 09:24:44;;;;;;;7.05;4.72;;;;;;;11.50;68.30;99424.97;6159308;23;20005;-66
2021/03/14 09:27:14;;;;;;;8.00;2.97;;;;;;;11.50;67.96;99429.78;6159525;23;20013;-65
2021/03/14 09:29:43;;;;;;;3.72;2.58;;;;;;;11.52;67.42;99427.38;6157868;23;20005;-66
2021/03/14 09:32:32;;;;;;;5.90;3.60;;;;;;;11.56;67.24;99425.28;6132785;23;20005;-66
2021/03/14 09:35:14;;;;;;;4.22;2.90;;;;;;;11.60;66.65;99440.06;6159906;23;20001;-64
2021/03/14 09:37:41;;;;;;;4.82;2.53;;;;;;;11.60;66.54;99434.44;6158397;23;20386;-66
2021/03/14 09:40:23;;;;;;;2.80;2.47;;;;;;;11.62;65.27;99429.16;6158582;23;20097;-67
2021/03/14 09:42:53;;;;;;;4.07;2.60;;;;;;;11.60;63.58;99426.00;6158486;23;20005;-66
2021/03/14 09:45:22;;;;;;;2.80;1.77;;;;;;;11.61;63.32;99422.75;6159147;23;20325;-66
2021/03/14 09:48:10;;;;;;;4.30;2.67;;;;;;;11.59;63.21;99432.84;6159420;23;19997;-66
2021/03/14 09:50:36;;;;;;;3.47;2.20;;;;;;;11.55;63.83;99432.94;6159699;23;20032;-66
2021/03/14 09:53:03;;;;;;;5.50;3.58;;;;;;;11.55;63.97;99435.75;6159204;23;20012;-66
2021/03/14 09:55:35;;;;;;;5.30;2.85;;;;;;;11.55;64.02;99438.56;6158760;23;20254;-67
2021/03/14 09:58:02;;;;;;;3.92;2.80;;;;;;;11.56;64.31;99444.97;6157344;23;20001;-66
2021/03/14 10:00:31;;;;;;;6.38;4.82;;;;;;;11.52;63.19;99445.03;6158499;23;20392;-68
2021/03/14 10:03:12;;;;;;;7.97;5.57;;;;;;;11.51;63.98;99445.47;6158381;23;20009;-69
2021/03/14 10:05:42;;;;;;;6.18;4.47;;;;;;;11.51;63.91;99448.28;6158933;23;20005;-69
2021/03/14 10:08:09;;;;;;;10.75;7.32;;;;;;;11.50;64.48;99446.69;6158427;23;20009;-69
2021/03/14 10:10:39;;;;;;;12.02;7.40;;;;;;;11.51;64.11;99448.28;6159672;23;20012;-71
2021/03/14 10:13:08;;;;;;;17.50;9.20;;;;;;;11.48;64.25;99454.75;6159080;23;20365;-70
2021/03/14 10:15:34;;;;;;;9.02;6.18;;;;;;;11.43;64.01;99447.63;6159230;23;20072;-69
2021/03/14 10:18:04;;;;;;;10.13;6.82;;;;;;;11.40;64.18;99446.47;6158809;23;20010;-70
2021/03/14 10:20:30;;;;;;;18.73;12.35;;;;;;;11.38;64.59;99456.56;6159536;23;19997;-66
2021/03/14 10:23:06;;;;;;;9.75;6.43;;;;;;;11.38;64.93;99460.16;6132863;23;20018;-69
2021/03/14 10:25:35;;;;;;;5.88;4.00;;;;;;;11.38;64.45;99462.97;6159104;23;20060;-67
2021/03/14 10:28:15;;;;;;;10.05;5.10;;;;;;;11.39;64.96;99460.97;6159215;23;20318;-68
2021/03/14 10:30:43;;;;;;;6.40;3.85;;;;;;;11.37;64.91;99460.59;6159172;23;20393;-68
2021/03/14 10:33:11;;;;;;;9.68;5.43;;;;;;;11.38;65.19;99462.97;6157610;23;20005;-66
2021/03/14 10:35:38;;;;;;;5.85;3.65;;;;;;;11.36;65.24;99465.44;6158220;23;20049;-67
2021/03/14 10:38:21;;;;;;;5.20;2.78;;;;;;;11.35;64.99;99465.88;6157051;23;20290;-67
2021/03/14 10:40:48;;;;;;;4.45;1.77;;;;;;;11.36;64.23;99465.44;6158398;23;20005;-67
2021/03/14 10:43:22;;;;;;;3.72;2.70;;;;;;;11.43;62.91;99458.88;6159272;23;20005;-70
2021/03/14 10:45:49;;;;;;;4.47;2.38;;;;;;;11.44;63.49;99461.25;6133186;23;20029;-68
2021/03/14 10:48:15;;;;;;;5.25;3.47;;;;;;;11.39;63.56;99470.19;6159387;23;20006;-68
2021/03/14 10:50:41;;;;;;;8.57;5.43;;;;;;;11.40;63.37;99466.16;6157478;23;20355;-67
2021/03/14 10:53:13;;;;;;;10.50;6.22;;;;;;;11.35;63.52;99469.47;6158217;23;20005;-71
2021/03/14 10:55:40;;;;;;;8.48;3.70;;;;;;;11.37;63.76;99475.47;6157813;23;20354;-67
2021/03/14 10:58:08;;;;;;;5.18;3.40;;;;;;;11.38;63.60;99485.50;6158614;23;20033;-67
2021/03/14 11:00:36;;;;;;;17.67;9.45;;;;;;;11.41;63.23;99479.00;6132693;23;20013;-72
2021/03/14 11:03:10;;;;;;;14.30;8.93;;;;;;;11.38;63.02;99491.13;6157429;23;20005;-70
2021/03/14 11:05:37;;;;;;;13.00;8.32;;;;;;;11.34;63.53;99481.16;6132576;23;20373;-67
2021/03/14 11:08:03;;;;;;;4.80;3.20;;;;;;;11.27;62.99;99484.91;6158591;23;20298;-69
2021/03/14 11:10:29;;;;;;;5.53;3.78;;;;;;;11.17;63.46;99485.88;6157141;23;20015;-70
2021/03/14 11:12:54;;;;;;;6.90;4.43;;;;;;;11.14;64.21;99475.47;6157556;23;20009;-65
2021/03/14 11:15:27;;;;;;;5.05;3.08;;;;;;;11.14;64.19;99479.09;6154736;23;20001;-64
2021/03/14 11:17:53;;;;;;;7.22;4.50;;;;;;;11.14;64.40;99469.84;6157168;23;20013;-65
2021/03/14 11:20:21;;;;;;;7.60;4.35;;;;;;;11.09;64.38;99473.16;6158470;23;20032;-65
2021/03/14 11:22:54;;;;;;;10.10;6.15;;;;;;;11.03;64.77;99469.25;6158269;23;20016;-70
2021/03/14 11:25:22;;;;;;;40.95;19.20;;;;;;;10.98;65.04;99475.38;6158552;23;20346;-68
2021/03/14 11:27:48;;;;;;;21.02;9.88;;;;;;;10.98;65.25;99473.34;6158479;23;20024;-68
2021/03/14 11:30:15;;;;;;;6.80;4.07;;;;;;;10.96;65.22;99470.19;6158463;23;20593;-66
2021/03/14 11:32:41;;;;;;;7.82;3.88;;;;;;;10.94;65.65;99466.19;6132650;23;20006;-66